Time;durP1;ratioP1;P1;durP2;ratioP2;P2;SDS_P1;SDS_P2;PMS_P1;PMS_P2;Temp;Humidity;BMP_temperature;BMP_pressure;BME280_temperature;BME280_humidity;BME280_pressure;Samples;Min_cycle;Max_cycle;Signal;HPM_P1;HPM_P2
2024/03/02 00:00:22;;;;;;;9.65;3.53;;;;;;;2.75;100.00;98465.38;5064581;28;20055;-56
2024/03/02 00:02:50;;;;;;;11.68;3.55;;;;;;;2.74;100.00;98455.59;5061069;28;20053;-57
2024/03/02 00:05:22;;;;;;;6.93;2.65;;;;;;;2.73;100.00;98458.66;5061612;28;20622;-55
2024/03/02 00:07:57;;;;;;;8.60;2.25;;;;;;;2.70;100.00;98462.09;5062178;28;20067;-60
2024/03/02 00:10:31;;;;;;;8.70;2.60;;;;;;;2.66;100.00;98459.25;5044795;28;20040;-58
2024/03/02 00:12:58;;;;;;;8.52;2.67;;;;;;;2.64;100.00;98458.81;5063962;28;20052;-54
2024/03/02 00:15:44;;;;;;;7.32;1.98;;;;;;;2.60;100.00;98466.09;5056706;28;20052;-58
2024/03/02 00:18:14;;;;;;;6.32;1.88;;;;;;;2.58;100.00;98467.59;5049504;28;20055;-56
2024/03/02 00:20:42;;;;;;;4.95;2.22;;;;;;;2.57;100.00;98475.00;5055491;28;20049;-59
2024/03/02 00:23:13;;;;;;;10.45;3.10;;;;;;;2.53;100.00;98463.19;5068324;28;20530;-59
2024/03/02 00:25:46;;;;;;;9.10;2.17;;;;;;;2.50;100.00;98474.81;5056179;28;20056;-58
2024/03/02 00:28:17;;;;;;;4.63;2.00;;;;;;;2.47;100.00;98478.22;5079450;28;20052;-56
2024/03/02 00:30:57;;;;;;;4.20;1.48;;;;;;;2.45;100.00;98477.78;5080346;28;20552;-52
2024/03/02 00:33:31;;;;;;;5.38;1.65;;;;;;;2.43;100.00;98480.06;5055227;28;20529;-54
2024/03/02 00:36:00;;;;;;;4.75;1.23;;;;;;;2.40;100.00;98478.84;5085538;28;20143;-56
2024/03/02 00:38:29;;;;;;;4.65;2.60;;;;;;;2.37;100.00;98482.25;5076436;28;20052;-56
2024/03/02 00:40:58;;;;;;;7.10;2.03;;;;;;;2.36;100.00;98488.84;5054292;28;20044;-55
2024/03/02 00:43:38;;;;;;;4.72;2.58;;;;;;;2.34;100.00;98485.66;5080852;28;20600;-55
2024/03/02 00:46:06;;;;;;;3.15;1.38;;;;;;;2.29;100.00;98474.19;5088425;28;20051;-54
2024/03/02 00:48:36;;;;;;;6.28;2.15;;;;;;;2.28;100.00;98478.84;5085266;28;20048;-55
2024/03/02 00:51:04;;;;;;;6.53;1.85;;;;;;;2.26;100.00;98491.25;5048069;28;20045;-56
2024/03/02 00:53:35;;;;;;;2.38;1.30;;;;;;;2.24;100.00;98486.16;5060995;28;20402;-52
2024/03/02 00:56:02;;;;;;;5.00;1.38;;;;;;;2.23;100.00;98479.09;5062443;28;20056;-56
2024/03/02 00:58:30;;;;;;;4.55;1.58;;;;;;;2.25;100.00;98484.22;5068051;28;20052;-57
2024/03/02 01:00:57;;;;;;;5.55;1.58;;;;;;;2.25;100.00;98478.78;5052480;28;20052;-53
2024/03/02 01:03:25;;;;;;;5.47;1.70;;;;;;;2.28;100.00;98483.50;5067612;28;20611;-52
2024/03/02 01:05:52;;;;;;;8.07;2.40;;;;;;;2.27;100.00;98482.75;5071166;28;20052;-55
2024/03/02 01:08:20;;;;;;;5.75;1.80;;;;;;;2.26;100.00;98488.53;5072932;28;20143;-56
2024/03/02 01:10:47;;;;;;;9.32;1.95;;;;;;;2.26;100.00;98488.53;5066139;28;20060;-54
2024/03/02 01:13:14;;;;;;;3.45;1.33;;;;;;;2.28;100.00;98488.97;5067544;28;20059;-54
2024/03/02 01:15:41;;;;;;;7.80;2.83;;;;;;;2.29;100.00;98493.31;5078358;28;20517;-55
2024/03/02 01:18:09;;;;;;;10.35;1.95;;;;;;;2.29;100.00;98480.44;5068140;28;20041;-54
2024/03/02 01:20:36;;;;;;;5.68;1.60;;;;;;;2.31;100.00;98488.28;5079026;28;20407;-54
2024/03/02 01:23:04;;;;;;;7.00;1.80;;;;;;;2.31;100.00;98482.81;5086993;28;20044;-55
2024/03/02 01:25:31;;;;;;;4.75;1.67;;;;;;;2.32;100.00;98492.63;5062954;28;20510;-56
2024/03/02 01:27:58;;;;;;;5.03;1.35;;;;;;;2.30;100.00;98492.16;5066426;28;20524;-54
2024/03/02 01:30:26;;;;;;;4.47;1.65;;;;;;;2.27;100.00;98482.75;5052370;28;20060;-56
2024/03/02 01:32:53;;;;;;;10.88;2.78;;;;;;;2.25;100.00;98484.22;5057540;28;20585;-56
2024/03/02 01:35:21;;;;;;;5.45;1.90;;;;;;;2.24;100.00;98493.53;5064416;28;20498;-51
2024/03/02 01:37:48;;;;;;;7.55;1.45;;;;;;;2.22;100.00;98487.63;5062669;28;20052;-55
2024/03/02 01:40:15;;;;;;;4.90;1.80;;;;;;;2.15;100.00;98484.69;5065214;28;20049;-55
2024/03/02 01:42:44;;;;;;;6.13;1.50;;;;;;;2.16;100.00;98491.75;5056447;28;20068;-56
2024/03/02 01:45:11;;;;;;;4.97;1.42;;;;;;;2.13;100.00;98487.75;5066316;28;20048;-56
2024/03/02 01:47:39;;;;;;;6.22;2.05;;;;;;;2.12;100.00;98486.16;5065495;28;20051;-51
2024/03/02 01:50:07;;;;;;;8.40;1.77;;;;;;;2.11;100.00;98492.78;5079241;28;20056;-51
2024/03/02 01:52:34;;;;;;;3.40;1.48;;;;;;;2.09;100.00;98486.84;5077137;28;20056;-56
2024/03/02 01:55:02;;;;;;;5.88;1.60;;;;;;;2.07;100.00;98486.41;5042314;28;20048;-53
2024/03/02 01:57:30;;;;;;;7.50;2.22;;;;;;;2.04;100.00;98489.06;5073417;28;20036;-55
2024/03/02 01:59:58;;;;;;;7.20;2.63;;;;;;;2.04;100.00;98484.34;5074087;28;20513;-56
2024/03/02 02:02:25;;;;;;;7.47;2.30;;;;;;;2.03;100.00;98490.19;5091416;28;20059;-58
2024/03/02 02:04:53;;;;;;;6.13;1.80;;;;;;;2.03;100.00;98487.44;5062425;28;20386;-58
2024/03/02 02:07:20;;;;;;;8.45;2.85;;;;;;;2.02;100.00;98496.75;5076459;28;20406;-54
2024/03/02 02:09:47;;;;;;;11.00;4.03;;;;;;;1.99;100.00;98491.97;5045622;28;20040;-54
2024/03/02 02:12:15;;;;;;;5.60;1.48;;;;;;;1.97;100.00;98497.81;5072681;28;20049;-56
2024/03/02 02:14:50;;;;;;;4.53;1.55;;;;;;;1.96;100.00;98498.16;5051627;28;20045;-55
2024/03/02 02:17:17;;;;;;;4.47;1.25;;;;;;;1.93;100.00;98504.28;5067840;28;20044;-56
2024/03/02 02:19:44;;;;;;;11.70;2.03;;;;;;;1.93;100.00;98498.84;5069464;28;20040;-54
2024/03/02 02:22:12;;;;;;;10.27;2.53;;;;;;;1.91;100.00;98501.13;5064091;28;20048;-53
2024/03/02 02:24:42;;;;;;;4.72;1.73;;;;;;;1.89;100.00;98492.47;5084133;28;20051;-52
2024/03/02 02:27:10;;;;;;;8.90;1.73;;;;;;;1.88;100.00;98494.38;5056581;28;20053;-56
2024/03/02 02:29:37;;;;;;;10.45;2.67;;;;;;;1.84;100.00;98497.03;5064730;28;20052;-52
2024/03/02 02:32:05;;;;;;;5.13;1.63;;;;;;;1.81;100.00;98511.34;5069207;28;20047;-55
2024/03/02 02:34:33;;;;;;;10.30;2.20;;;;;;;1.79;100.00;98512.81;5069479;28;20046;-56
2024/03/02 02:37:01;;;;;;;4.78;1.92;;;;;;;1.77;100.00;98513.16;5067267;28;20053;-54
2024/03/02 02:39:28;;;;;;;7.00;1.80;;;;;;;1.75;100.00;98509.97;5066571;28;20402;-56
2024/03/02 02:41:56;;;;;;;7.43;1.58;;;;;;;1.74;100.00;98502.94;5056909;28;20056;-56
2024/03/02 02:44:24;;;;;;;7.45;1.73;;;;;;;1.72;100.00;98502.47;5059070;28;20041;-57
2024/03/02 02:46:52;;;;;;;6.32;1.77;;;;;;;1.71;100.00;98502.81;5066417;28;20139;-53
2024/03/02 02:49:19;;;;;;;5.03;1.65;;;;;;;1.69;100.00;98505.91;5067731;28;20467;-58
2024/03/02 02:51:47;;;;;;;5.90;2.15;;;;;;;1.70;100.00;98509.41;5060653;28;20568;-54
2024/03/02 02:54:14;;;;;;;9.10;1.63;;;;;;;1.67;100.00;98502.69;5082053;28;20075;-57
2024/03/02 02:56:41;;;;;;;7.05;1.98;;;;;;;1.65;100.00;98504.97;5067047;28;20395;-56
2024/03/02 02:59:09;;;;;;;11.07;2.45;;;;;;;1.62;100.00;98504.84;5067153;28;20048;-53
2024/03/02 03:01:36;;;;;;;13.80;2.20;;;;;;;1.60;100.00;98507.94;5129676;22;20402;-56
2024/03/02 03:04:03;;;;;;;14.45;2.28;;;;;;;1.60;100.00;98507.94;5030353;28;20034;-55
2024/03/02 03:06:31;;;;;;;8.10;1.60;;;;;;;1.59;100.00;98498.16;5048492;28;20056;-56
2024/03/02 03:08:58;;;;;;;8.30;1.75;;;;;;;1.59;100.00;98500.09;5052265;28;20037;-57
2024/03/02 03:11:26;;;;;;;8.70;2.97;;;;;;;1.58;100.00;98493.84;5041816;28;20406;-57
2024/03/02 03:13:54;;;;;;;8.20;2.13;;;;;;;1.58;100.00;98499.31;5045497;28;20076;-54
2024/03/02 03:16:21;;;;;;;5.80;1.60;;;;;;;1.58;100.00;98493.06;5031113;28;20375;-56
2024/03/02 03:18:51;;;;;;;5.85;1.90;;;;;;;1.57;100.00;98500.44;5040658;28;20045;-55
2024/03/02 03:21:19;;;;;;;10.43;1.75;;;;;;;1.56;100.00;98498.81;5041364;28;20406;-54
2024/03/02 03:23:46;;;;;;;8.82;1.67;;;;;;;1.54;100.00;98492.13;5048994;28;20048;-54
2024/03/02 03:26:13;;;;;;;8.77;1.75;;;;;;;1.54;100.00;98497.56;5039706;28;20502;-56
2024/03/02 03:28:42;;;;;;;14.02;2.13;;;;;;;1.55;100.00;98496.47;5031180;28;20050;-56
2024/03/02 03:31:11;;;;;;;4.43;1.70;;;;;;;1.55;100.00;98499.19;5037408;28;20131;-53
2024/03/02 03:33:38;;;;;;;10.65;1.88;;;;;;;1.56;100.00;98498.81;5037372;28;20045;-55
2024/03/02 03:36:05;;;;;;;9.02;1.83;;;;;;;1.54;100.00;98503.03;5051002;28;20052;-54
2024/03/02 03:38:33;;;;;;;10.40;2.40;;;;;;;1.55;100.00;98499.19;5031204;28;20668;-55
2024/03/02 03:41:00;;;;;;;7.53;1.60;;;;;;;1.51;100.00;98499.06;5045122;28;20052;-54
2024/03/02 03:43:27;;;;;;;4.47;1.80;;;;;;;1.50;100.00;98497.50;5044216;28;20041;-56
2024/03/02 03:45:55;;;;;;;12.30;3.03;;;;;;;1.51;100.00;98501.00;5043162;28;20041;-56
2024/03/02 03:48:22;;;;;;;6.93;1.95;;;;;;;1.48;100.00;98494.31;5047485;28;20049;-56
2024/03/02 03:50:49;;;;;;;7.63;1.25;;;;;;;1.49;100.00;98512.25;5054156;28;20040;-54
2024/03/02 03:53:17;;;;;;;9.45;1.75;;;;;;;1.51;100.00;98506.47;5044560;28;20060;-58
2024/03/02 03:55:46;;;;;;;14.48;2.83;;;;;;;1.52;100.00;98500.66;5039425;28;20583;-54
2024/03/02 03:58:14;;;;;;;8.75;1.50;;;;;;;1.53;100.00;98510.44;5045515;28;20057;-53
2024/03/02 04:00:41;;;;;;;6.03;1.65;;;;;;;1.54;100.00;98506.56;5053669;28;20053;-57
2024/03/02 04:03:09;;;;;;;7.55;2.08;;;;;;;1.54;100.00;98512.00;5048632;28;20065;-54
2024/03/02 04:05:36;;;;;;;10.10;2.10;;;;;;;1.55;100.00;98512.81;5037186;28;20045;-52
2024/03/02 04:08:04;;;;;;;5.30;1.50;;;;;;;1.52;100.00;98519.75;5052272;28;20370;-54
2024/03/02 04:10:31;;;;;;;12.75;2.05;;;;;;;1.49;100.00;98514.97;5040592;28;20506;-52
2024/03/02 04:12:58;;;;;;;7.13;1.50;;;;;;;1.47;100.00;98525.44;5035862;28;20049;-56
2024/03/02 04:15:26;;;;;;;11.52;1.88;;;;;;;1.44;100.00;98514.38;5039198;28;20059;-54
2024/03/02 04:17:53;;;;;;;7.65;1.95;;;;;;;1.42;100.00;98522.13;5044251;28;20067;-57
2024/03/02 04:20:20;;;;;;;7.43;1.90;;;;;;;1.40;100.00;98527.94;5039515;28;20121;-58
2024/03/02 04:22:48;;;;;;;16.80;3.97;;;;;;;1.39;100.00;98517.34;5033582;28;20054;-53
2024/03/02 04:25:15;;;;;;;11.27;2.30;;;;;;;1.35;100.00;98521.91;5052856;28;20052;-54
2024/03/02 04:27:42;;;;;;;8.10;1.30;;;;;;;1.34;100.00;98520.28;5043047;28;20391;-55
2024/03/02 04:30:10;;;;;;;9.38;2.58;;;;;;;1.32;100.00;98517.13;5037173;28;20503;-52
2024/03/02 04:32:38;;;;;;;10.18;3.00;;;;;;;1.30;100.00;98517.44;5042724;28;20040;-53
2024/03/02 04:35:10;;;;;;;26.10;3.28;;;;;;;1.28;100.00;98511.53;5043816;28;20040;-55
2024/03/02 04:37:37;;;;;;;5.88;2.30;;;;;;;1.29;100.00;98512.34;5059625;28;20391;-56
2024/03/02 04:40:08;;;;;;;8.80;2.83;;;;;;;1.31;100.00;98512.78;5043570;28;20041;-54
2024/03/02 04:42:35;;;;;;;6.07;1.23;;;;;;;1.30;100.00;98501.09;5048933;28;20045;-54
2024/03/02 04:45:03;;;;;;;8.85;3.08;;;;;;;1.30;100.00;98513.94;5048039;28;20063;-56
2024/03/02 04:47:30;;;;;;;14.98;1.55;;;;;;;1.31;100.00;98515.50;5047396;28;20064;-55
2024/03/02 04:49:58;;;;;;;10.23;2.15;;;;;;;1.32;100.00;98517.13;5046294;28;20056;-56
2024/03/02 04:52:25;;;;;;;4.32;2.25;;;;;;;1.33;100.00;98524.13;5030301;28;20399;-55
2024/03/02 04:57:38;;;;;;;5.45;2.05;;;;;;;1.33;100.00;98527.66;5057039;28;20033;-54
2024/03/02 05:00:08;;;;;;;10.70;2.03;;;;;;;1.34;100.00;98531.19;5042367;28;20411;-59
2024/03/02 05:02:36;;;;;;;8.40;2.17;;;;;;;1.33;100.00;98527.66;5042581;28;20052;-53
2024/03/02 05:05:03;;;;;;;10.27;2.10;;;;;;;1.34;100.00;98525.75;5047079;28;20045;-56
2024/03/02 05:07:31;;;;;;;12.63;2.28;;;;;;;1.33;100.00;98530.41;5042524;28;20064;-54
2024/03/02 05:09:59;;;;;;;8.95;1.95;;;;;;;1.32;100.00;98520.66;5046468;28;20045;-55
2024/03/02 05:15:13;;;;;;;6.07;1.50;;;;;;;1.32;100.00;98522.56;5035082;28;20048;-56
2024/03/02 05:17:45;;;;;;;9.80;2.20;;;;;;;1.33;100.00;98529.59;5041711;28;20045;-58
2024/03/02 05:20:13;;;;;;;14.20;2.13;;;;;;;1.32;100.00;98528.03;5026111;28;20048;-56
2024/03/02 05:22:40;;;;;;;8.38;1.92;;;;;;;1.31;100.00;98521.75;5047015;28;20072;-58
2024/03/02 05:25:09;;;;;;;11.00;2.50;;;;;;;1.28;100.00;98530.63;5047544;28;20041;-56
2024/03/02 05:27:37;;;;;;;11.95;1.88;;;;;;;1.27;100.00;98523.59;5045683;28;20501;-55
2024/03/02 05:30:06;;;;;;;11.13;1.58;;;;;;;1.25;100.00;98517.66;5046889;28;20432;-50
2024/03/02 05:32:34;;;;;;;10.73;3.15;;;;;;;1.24;100.00;98516.09;5046169;28;20514;-57
2024/03/02 05:35:02;;;;;;;7.47;1.83;;;;;;;1.22;100.00;98530.03;5047033;28;20053;-57
2024/03/02 05:37:30;;;;;;;8.45;1.92;;;;;;;1.23;100.00;98526.19;5045818;28;20061;-56
2024/03/02 05:39:59;;;;;;;12.02;1.73;;;;;;;1.26;100.00;98532.88;5047036;28;20041;-54
2024/03/02 05:42:27;;;;;;;13.00;2.08;;;;;;;1.25;100.00;98528.56;5046568;28;20048;-53
2024/03/02 05:44:55;;;;;;;9.60;2.10;;;;;;;1.22;100.00;98535.47;5036281;28;20049;-56
2024/03/02 05:47:22;;;;;;;7.60;1.80;;;;;;;1.23;100.00;98537.09;5045427;28;20686;-54
2024/03/02 05:49:49;;;;;;;12.70;1.80;;;;;;;1.22;100.00;98527.31;5046629;28;20052;-56
2024/03/02 05:52:17;;;;;;;7.07;1.40;;;;;;;1.22;100.00;98527.31;5043974;28;20057;-51
2024/03/02 05:54:44;;;;;;;17.63;3.70;;;;;;;1.22;100.00;98534.69;5045416;28;20041;-54
2024/03/02 05:57:33;;;;;;;9.18;2.03;;;;;;;1.23;100.00;98525.38;5045905;28;20033;-56
2024/03/02 06:00:01;;;;;;;10.65;1.98;;;;;;;1.25;100.00;98528.56;5046456;28;20395;-53
2024/03/02 06:02:28;;;;;;;6.30;1.80;;;;;;;1.25;100.00;98528.56;5019758;28;20053;-57
2024/03/02 06:04:56;;;;;;;9.35;1.90;;;;;;;1.25;100.00;98536.75;5040453;28;20055;-56
2024/03/02 06:07:23;;;;;;;8.27;1.75;;;;;;;1.25;100.00;98534.00;5049702;28;20060;-55
2024/03/02 06:09:52;;;;;;;11.48;3.38;;;;;;;1.27;100.00;98541.88;5021505;28;20056;-55
2024/03/02 06:12:19;;;;;;;9.07;2.00;;;;;;;1.25;100.00;98534.00;5044161;28;20048;-54
2024/03/02 06:14:47;;;;;;;11.73;2.80;;;;;;;1.26;100.00;98541.06;5028916;28;20083;-56
2024/03/02 06:17:15;;;;;;;12.02;3.83;;;;;;;1.23;100.00;98536.28;5042141;28;20057;-55
2024/03/02 06:19:42;;;;;;;17.48;1.95;;;;;;;1.24;100.00;98548.78;5033409;28;20049;-55
2024/03/02 06:22:10;;;;;;;5.95;1.73;;;;;;;1.24;100.00;98540.63;5043620;28;20048;-57
2024/03/02 06:24:37;;;;;;;13.52;2.47;;;;;;;1.23;100.00;98548.00;5050074;28;20063;-56
2024/03/02 06:27:06;;;;;;;5.85;1.70;;;;;;;1.23;100.00;98550.72;5048793;28;20045;-56
2024/03/02 06:29:34;;;;;;;7.30;1.70;;;;;;;1.23;100.00;98555.38;5028001;28;20037;-55
2024/03/02 06:32:01;;;;;;;8.35;1.73;;;;;;;1.23;100.00;98558.09;5038285;28;20045;-56
2024/03/02 06:34:28;;;;;;;7.03;1.17;;;;;;;1.22;100.00;98553.75;5036679;28;20489;-56
2024/03/02 06:36:55;;;;;;;10.25;1.95;;;;;;;1.24;100.00;98559.69;5028894;28;20049;-54
2024/03/02 06:39:23;;;;;;;11.90;1.90;;;;;;;1.23;100.00;98556.16;5044928;28;20045;-54
2024/03/02 06:41:50;;;;;;;5.90;2.10;;;;;;;1.24;100.00;98560.47;5041815;28;20046;-56
2024/03/02 06:44:18;;;;;;;4.78;1.42;;;;;;;1.23;100.00;98558.88;5047443;28;20061;-56
2024/03/02 06:46:45;;;;;;;7.72;1.50;;;;;;;1.25;100.00;98569.44;5050052;28;20048;-52
2024/03/02 06:49:12;;;;;;;6.03;1.58;;;;;;;1.23;100.00;98566.25;5037917;28;20065;-56
2024/03/02 06:51:40;;;;;;;8.30;1.55;;;;;;;1.24;100.00;98567.88;5041936;28;20038;-55
2024/03/02 06:54:09;;;;;;;6.65;1.35;;;;;;;1.23;100.00;98564.34;5035438;28;20041;-54
2024/03/02 06:56:38;;;;;;;4.35;1.83;;;;;;;1.21;100.00;98563.09;5043531;28;20049;-55
2024/03/02 06:59:06;;;;;;;4.32;1.10;;;;;;;1.18;100.00;98577.38;5041958;28;20414;-56
2024/03/02 07:01:33;;;;;;;13.90;1.58;;;;;;;1.14;100.00;98573.72;5030133;28;20064;-54
2024/03/02 07:04:00;;;;;;;12.88;1.73;;;;;;;1.12;100.00;98568.63;5058090;28;20044;-51
2024/03/02 07:06:28;;;;;;;5.72;1.70;;;;;;;1.09;100.00;98571.22;5057152;28;20037;-55
2024/03/02 07:08:55;;;;;;;5.32;1.45;;;;;;;1.08;100.00;98575.09;5044576;28;20052;-54
2024/03/02 07:11:22;;;;;;;6.75;1.60;;;;;;;1.07;100.00;98565.31;5048934;28;20047;-54
2024/03/02 07:13:50;;;;;;;10.65;1.30;;;;;;;1.06;100.00;98577.34;5049326;28;20052;-54
2024/03/02 07:16:32;;;;;;;6.13;1.60;;;;;;;1.06;100.00;98575.41;5052603;28;20749;-56
2024/03/02 07:19:01;;;;;;;5.63;1.38;;;;;;;1.06;100.00;98572.69;5048811;28;20052;-56
2024/03/02 07:21:30;;;;;;;7.25;1.35;;;;;;;1.07;100.00;98566.09;5041824;28;20053;-57
2024/03/02 07:23:59;;;;;;;5.93;1.73;;;;;;;1.07;100.00;98570.75;5040289;28;20100;-57
2024/03/02 07:26:26;;;;;;;8.32;2.00;;;;;;;1.07;100.00;98574.28;5042869;28;20052;-57
2024/03/02 07:28:57;;;;;;;8.07;2.30;;;;;;;1.08;100.00;98577.81;5042946;28;20044;-51
2024/03/02 07:31:24;;;;;;;7.18;1.60;;;;;;;1.08;100.00;98577.81;5037736;28;20050;-56
2024/03/02 07:33:52;;;;;;;4.32;1.55;;;;;;;1.09;100.00;98579.38;5043849;28;20045;-55
2024/03/02 07:36:19;;;;;;;7.88;1.83;;;;;;;1.09;100.00;98588.34;5049577;28;20411;-55
2024/03/02 07:38:50;;;;;;;6.47;3.15;;;;;;;1.11;100.00;98577.16;5042915;28;20041;-57
2024/03/02 07:41:17;;;;;;;7.90;2.17;;;;;;;1.13;100.00;98585.78;5049095;28;20049;-55
2024/03/02 07:43:44;;;;;;;9.88;1.20;;;;;;;1.16;100.00;98587.81;5040273;28;20045;-56
2024/03/02 07:46:13;;;;;;;7.50;2.83;;;;;;;1.20;100.00;98591.47;5049048;28;20473;-55
2024/03/02 07:48:43;;;;;;;2.88;1.60;;;;;;;1.23;100.00;98585.34;5047065;28;20060;-54
2024/03/02 07:51:10;;;;;;;7.63;1.70;;;;;;;1.27;100.00;98591.72;5046059;28;20053;-55
2024/03/02 07:53:37;;;;;;;4.80;1.40;;;;;;;1.30;100.00;98596.47;5045194;28;20052;-56
2024/03/02 07:56:05;;;;;;;11.40;2.50;;;;;;;1.33;100.00;98598.53;5044955;28;20049;-53
2024/03/02 07:58:35;;;;;;;6.80;1.60;;;;;;;1.36;100.00;98594.34;5048229;28;20137;-56
2024/03/02 08:01:02;;;;;;;4.93;1.25;;;;;;;1.38;100.00;98590.16;5058988;28;20155;-48
2024/03/02 08:03:32;;;;;;;5.38;1.50;;;;;;;1.40;100.00;98596.06;5053124;28;20041;-56
2024/03/02 08:06:00;;;;;;;6.57;1.50;;;;;;;1.43;100.00;98600.06;5040622;28;20410;-56
2024/03/02 08:08:27;;;;;;;3.10;1.48;;;;;;;1.45;100.00;98598.59;5066568;28;20044;-55
2024/03/02 08:10:55;;;;;;;4.85;1.23;;;;;;;1.48;100.00;98603.38;5047316;28;20045;-53
2024/03/02 08:13:24;;;;;;;7.32;1.35;;;;;;;1.51;100.00;98610.84;5037127;28;20056;-55
2024/03/02 08:15:52;;;;;;;3.72;1.33;;;;;;;1.56;100.00;98605.19;5050364;28;20048;-52
2024/03/02 08:18:19;;;;;;;4.45;1.27;;;;;;;1.61;100.00;98607.72;5041841;28;20046;-53
2024/03/02 08:20:47;;;;;;;6.70;2.08;;;;;;;1.67;100.00;98608.25;5036200;28;20053;-58
2024/03/02 08:23:14;;;;;;;6.68;1.70;;;;;;;1.71;100.00;98604.53;5061370;28;20053;-50
2024/03/02 08:25:42;;;;;;;5.22;1.08;;;;;;;1.75;100.00;98602.72;5045266;28;20044;-55
2024/03/02 08:28:11;;;;;;;1.85;0.55;;;;;;;1.81;100.00;98600.56;5043718;28;20041;-54
2024/03/02 08:30:38;;;;;;;8.52;1.15;;;;;;;1.85;100.00;98613.19;5055735;28;20049;-55
2024/03/02 08:33:05;;;;;;;1.15;0.50;;;;;;;1.92;100.00;98611.81;5047873;28;20057;-55
2024/03/02 08:35:36;;;;;;;4.07;0.90;;;;;;;1.97;100.00;98606.16;5036805;28;20435;-56
2024/03/02 08:38:04;;;;;;;2.15;0.80;;;;;;;2.04;100.00;98609.13;5057776;28;20049;-56
2024/03/02 08:40:31;;;;;;;2.63;0.80;;;;;;;2.09;100.00;98603.44;5043844;28;20052;-55
2024/03/02 08:42:59;;;;;;;3.22;1.02;;;;;;;2.13;100.00;98607.06;5040032;28;20057;-56
2024/03/02 08:45:26;;;;;;;4.35;1.30;;;;;;;2.18;100.00;98612.28;5027716;28;20049;-56
2024/03/02 08:47:54;;;;;;;1.85;1.05;;;;;;;2.23;100.00;98612.84;5041628;28;20057;-56
2024/03/02 08:50:21;;;;;;;8.65;0.90;;;;;;;2.25;100.00;98605.13;5047113;28;20482;-52
2024/03/02 08:52:49;;;;;;;3.47;0.65;;;;;;;2.33;100.00;98606.16;5047249;28;20075;-60
2024/03/02 08:55:16;;;;;;;3.28;0.98;;;;;;;2.38;100.00;98606.69;5038948;28;20045;-56
2024/03/02 08:57:45;;;;;;;2.13;0.93;;;;;;;2.44;100.00;98613.53;5041452;28;20053;-59
2024/03/02 09:00:13;;;;;;;2.80;0.77;;;;;;;2.47;100.00;98623.75;5049464;28;20403;-56
2024/03/02 09:02:40;;;;;;;2.67;1.00;;;;;;;2.53;100.00;98613.41;5041094;28;20065;-57
2024/03/02 09:05:08;;;;;;;3.88;2.25;;;;;;;2.57;100.00;98621.72;5044425;28;20087;-56
2024/03/02 09:07:36;;;;;;;5.15;0.77;;;;;;;2.58;100.00;98629.56;5058591;28;20056;-56
2024/03/02 09:10:03;;;;;;;5.03;0.98;;;;;;;2.61;100.00;98617.94;5046790;28;20060;-58
2024/03/02 09:12:32;;;;;;;4.72;0.88;;;;;;;2.64;100.00;98621.91;5067647;28;20048;-51
2024/03/02 09:15:05;;;;;;;3.03;0.98;;;;;;;2.66;100.00;98619.63;5052918;28;20052;-56
2024/03/02 09:17:33;;;;;;;3.80;0.93;;;;;;;2.69;100.00;98618.94;5065958;28;20572;-56
2024/03/02 09:20:05;;;;;;;3.97;0.60;;;;;;;2.70;100.00;98618.59;5022879;28;20048;-51
2024/03/02 09:22:32;;;;;;;5.65;1.00;;;;;;;2.72;100.00;98621.78;5059493;28;20388;-56
2024/03/02 09:25:00;;;;;;;5.82;1.00;;;;;;;2.71;100.00;98617.47;5039746;28;20044;-57
2024/03/02 09:27:30;;;;;;;4.07;0.93;;;;;;;2.75;100.00;98618.38;5034447;28;20042;-51
2024/03/02 09:29:57;;;;;;;8.93;1.35;;;;;;;2.78;100.00;98627.81;5040809;28;20041;-55
2024/03/02 09:32:24;;;;;;;5.93;0.68;;;;;;;2.82;100.00;98624.03;5055839;28;20353;-54
2024/03/02 09:34:53;;;;;;;3.10;0.93;;;;;;;2.85;100.00;98620.63;5034810;28;20041;-54
2024/03/02 09:37:20;;;;;;;4.28;0.88;;;;;;;2.86;100.00;98622.19;5043209;28;20041;-57
2024/03/02 09:39:47;;;;;;;11.52;1.25;;;;;;;2.88;100.00;98617.19;5028904;28;20052;-56
2024/03/02 09:42:15;;;;;;;6.97;1.50;;;;;;;2.90;100.00;98622.31;5046474;28;20052;-58
2024/03/02 09:44:43;;;;;;;4.05;0.77;;;;;;;2.91;100.00;98627.41;5036581;28;20037;-55
2024/03/02 09:47:10;;;;;;;2.63;0.65;;;;;;;2.94;100.00;98626.72;5045467;28;20048;-56
2024/03/02 09:49:37;;;;;;;5.38;0.73;;;;;;;2.95;100.00;98616.59;5034492;28;20052;-57
2024/03/02 09:52:07;;;;;;;7.18;3.20;;;;;;;2.96;100.00;98624.47;5028354;28;20041;-54
2024/03/02 09:54:34;;;;;;;5.20;1.10;;;;;;;2.99;100.00;98618.28;5038279;28;20048;-57
2024/03/02 09:57:04;;;;;;;2.78;1.25;;;;;;;2.99;100.00;98618.28;5033526;28;20048;-54
2024/03/02 09:59:32;;;;;;;7.80;1.13;;;;;;;3.00;100.00;98622.63;5043387;28;20053;-55
2024/03/02 10:02:02;;;;;;;2.50;1.13;;;;;;;3.03;100.00;98608.25;5040341;28;20514;-55
2024/03/02 10:04:35;;;;;;;3.05;2.58;;;;;;;3.08;100.00;98612.69;5044041;28;20056;-57
2024/03/02 10:07:08;;;;;;;5.18;0.90;;;;;;;3.13;100.00;98611.63;5043212;28;20701;-53
2024/03/02 10:09:36;;;;;;;2.55;0.65;;;;;;;3.19;100.00;98610.25;5046083;28;20053;-54
2024/03/02 10:12:11;;;;;;;5.40;1.00;;;;;;;3.26;100.00;98607.69;5034142;28;20046;-55
2024/03/02 10:14:39;;;;;;;5.65;1.35;;;;;;;3.39;100.00;98603.78;5040532;28;20052;-53
2024/03/02 10:17:09;;;;;;;3.42;1.02;;;;;;;3.43;100.00;98607.41;5049058;28;20053;-57
2024/03/02 10:19:38;;;;;;;3.20;1.00;;;;;;;3.47;100.00;98606.34;5048564;28;20551;-52
2024/03/02 10:22:08;;;;;;;1.45;0.55;;;;;;;3.50;100.00;98604.84;5042921;28;20399;-56
2024/03/02 10:24:41;;;;;;;3.92;1.13;;;;;;;3.58;100.00;98609.34;5055923;28;20037;-58
2024/03/02 10:27:22;;;;;;;2.15;0.90;;;;;;;3.70;100.00;98614.78;5066001;28;20056;-57
2024/03/02 10:29:50;;;;;;;5.30;0.80;;;;;;;3.75;100.00;98611.78;5048560;28;20754;-58
2024/03/02 10:32:17;;;;;;;8.80;1.77;;;;;;;3.86;100.00;98610.09;5049634;28;20517;-57
2024/03/02 10:34:47;;;;;;;4.47;1.27;;;;;;;3.94;100.00;98600.94;5049190;28;20057;-60
2024/03/02 10:37:15;;;;;;;5.55;1.38;;;;;;;4.02;100.00;98621.84;5054012;28;20444;-58
2024/03/02 10:39:42;;;;;;;3.03;1.00;;;;;;;4.01;100.00;98609.31;5042320;28;20877;-62
2024/03/02 10:42:12;;;;;;;2.38;1.00;;;;;;;4.04;100.00;98607.81;5045149;28;20593;-58
2024/03/02 10:44:40;;;;;;;5.20;1.20;;;;;;;4.11;100.00;98607.97;5058427;28;20056;-59
2024/03/02 10:47:09;;;;;;;4.63;0.80;;;;;;;4.18;100.00;98608.94;5032295;28;20063;-58
2024/03/02 10:49:38;;;;;;;4.05;0.88;;;;;;;4.21;100.00;98599.19;5039357;28;20054;-58
2024/03/02 10:52:06;;;;;;;5.57;2.25;;;;;;;4.22;100.00;98589.84;5043972;28;20513;-58
2024/03/02 10:54:36;;;;;;;1.17;0.70;;;;;;;4.21;100.00;98600.00;5026206;28;20060;-58
2024/03/02 10:57:07;;;;;;;3.33;0.70;;;;;;;4.24;100.00;98610.25;5053219;28;20037;-58
2024/03/02 10:59:47;;;;;;;5.82;0.52;;;;;;;4.28;100.00;98599.41;5051711;28;20068;-58
2024/03/02 11:02:17;;;;;;;2.58;0.80;;;;;;;4.29;100.00;98601.75;5046515;28;20053;-59
2024/03/02 11:04:48;;;;;;;4.13;1.65;;;;;;;4.29;100.00;98604.50;5048659;28;20052;-60
2024/03/02 11:07:19;;;;;;;3.47;0.90;;;;;;;4.31;100.00;98607.69;5049011;28;20056;-59
2024/03/02 11:09:57;;;;;;;4.10;0.80;;;;;;;4.35;100.00;98613.25;5042597;28;20053;-60
2024/03/02 11:12:55;;;;;;;1.67;0.60;;;;;;;4.39;100.00;98607.84;5032293;28;20100;-58
2024/03/02 11:15:26;;;;;;;2.20;0.93;;;;;;;4.46;100.00;98608.00;4996727;28;20045;-58
2024/03/02 11:17:54;;;;;;;0.80;0.30;;;;;;;4.51;100.00;98615.94;5042930;28;20048;-60
2024/03/02 11:20:23;;;;;;;2.85;0.90;;;;;;;4.56;100.00;98626.63;5033625;28;20053;-59
2024/03/02 11:22:50;;;;;;;2.67;0.40;;;;;;;4.55;100.00;98617.66;5043940;28;20430;-58
2024/03/02 11:25:26;;;;;;;0.95;0.30;;;;;;;4.54;100.00;98628.94;5009702;28;20049;-60
2024/03/02 11:27:53;;;;;;;2.95;0.60;;;;;;;4.55;100.00;98616.84;5047393;28;20042;-60
2024/03/02 11:30:33;;;;;;;2.95;0.98;;;;;;;4.61;100.00;98616.19;5048402;28;20518;-60
2024/03/02 11:33:08;;;;;;;1.67;0.65;;;;;;;4.68;100.00;98626.53;5040532;28;20765;-61
2024/03/02 11:35:42;;;;;;;12.05;0.88;;;;;;;4.72;100.00;98609.00;5047423;28;20697;-61
2024/03/02 11:38:12;;;;;;;4.30;0.52;;;;;;;4.84;100.00;98616.31;5048672;28;20056;-61
2024/03/02 11:40:40;;;;;;;1.52;0.32;;;;;;;4.90;100.00;98614.88;5024350;28;20052;-60
2024/03/02 11:43:09;;;;;;;1.38;0.30;;;;;;;4.88;100.00;98609.75;5043772;28;20065;-60